sensor_id;sensor_type;location;lat;lon;timestamp;P1;durP1;ratioP1;P2;durP2;ratioP2
41101;SDS011;26845;50.190;19.178;2022-12-18T00:01:26;50.43;;;21.55;;
41101;SDS011;26845;50.190;19.178;2022-12-18T00:03:55;48.35;;;22.20;;
41101;SDS011;26845;50.190;19.178;2022-12-18T00:06:22;54.20;;;20.82;;
41101;SDS011;26845;50.190;19.178;2022-12-18T00:08:51;57.00;;;22.55;;
41101;SDS011;26845;50.190;19.178;2022-12-18T00:11:19;51.98;;;21.50;;
41101;SDS011;26845;50.190;19.178;2022-12-18T00:13:49;49.05;;;22.30;;
41101;SDS011;26845;50.190;19.178;2022-12-18T00:16:20;53.78;;;23.38;;
41101;SDS011;26845;50.190;19.178;2022-12-18T00:18:49;47.50;;;20.70;;
41101;SDS011;26845;50.190;19.178;2022-12-18T00:21:19;46.63;;;21.33;;
41101;SDS011;26845;50.190;19.178;2022-12-18T00:23:47;52.33;;;22.22;;
41101;SDS011;26845;50.190;19.178;2022-12-18T00:26:18;60.58;;;22.95;;
41101;SDS011;26845;50.190;19.178;2022-12-18T00:28:49;59.67;;;23.02;;
41101;SDS011;26845;50.190;19.178;2022-12-18T00:31:18;57.13;;;22.20;;
41101;SDS011;26845;50.190;19.178;2022-12-18T00:33:49;56.45;;;22.30;;
41101;SDS011;26845;50.190;19.178;2022-12-18T00:36:17;54.00;;;22.77;;
41101;SDS011;26845;50.190;19.178;2022-12-18T00:38:50;54.77;;;22.32;;
41101;SDS011;26845;50.190;19.178;2022-12-18T00:41:17;59.63;;;22.22;;
41101;SDS011;26845;50.190;19.178;2022-12-18T00:43:46;48.20;;;17.00;;
41101;SDS011;26845;50.190;19.178;2022-12-18T00:46:13;55.60;;;22.30;;
41101;SDS011;26845;50.190;19.178;2022-12-18T00:48:39;58.13;;;21.85;;
41101;SDS011;26845;50.190;19.178;2022-12-18T00:51:06;58.60;;;23.00;;
41101;SDS011;26845;50.190;19.178;2022-12-18T00:53:35;63.38;;;25.88;;
41101;SDS011;26845;50.190;19.178;2022-12-18T00:56:02;70.95;;;27.87;;
41101;SDS011;26845;50.190;19.178;2022-12-18T00:58:29;62.25;;;26.25;;
41101;SDS011;26845;50.190;19.178;2022-12-18T01:00:57;63.00;;;24.07;;
41101;SDS011;26845;50.190;19.178;2022-12-18T01:03:23;66.45;;;26.45;;
41101;SDS011;26845;50.190;19.178;2022-12-18T01:05:50;57.67;;;22.30;;
41101;SDS011;26845;50.190;19.178;2022-12-18T01:08:17;54.05;;;22.95;;
41101;SDS011;26845;50.190;19.178;2022-12-18T01:10:44;64.27;;;26.25;;
41101;SDS011;26845;50.190;19.178;2022-12-18T01:13:11;64.32;;;27.37;;
41101;SDS011;26845;50.190;19.178;2022-12-18T01:15:37;63.55;;;24.40;;
41101;SDS011;26845;50.190;19.178;2022-12-18T01:18:09;63.08;;;24.65;;
41101;SDS011;26845;50.190;19.178;2022-12-18T01:20:35;61.30;;;24.47;;
41101;SDS011;26845;50.190;19.178;2022-12-18T01:23:04;61.48;;;24.72;;
41101;SDS011;26845;50.190;19.178;2022-12-18T01:25:31;56.23;;;23.42;;
41101;SDS011;26845;50.190;19.178;2022-12-18T01:27:59;59.60;;;24.10;;
41101;SDS011;26845;50.190;19.178;2022-12-18T01:30:26;57.98;;;25.12;;
41101;SDS011;26845;50.190;19.178;2022-12-18T01:32:53;57.78;;;23.05;;
41101;SDS011;26845;50.190;19.178;2022-12-18T01:35:19;58.70;;;23.77;;
41101;SDS011;26845;50.190;19.178;2022-12-18T01:37:46;63.20;;;24.90;;
41101;SDS011;26845;50.190;19.178;2022-12-18T01:40:13;69.75;;;26.10;;
41101;SDS011;26845;50.190;19.178;2022-12-18T01:42:40;62.93;;;25.00;;
41101;SDS011;26845;50.190;19.178;2022-12-18T01:47:52;63.95;;;24.65;;
41101;SDS011;26845;50.190;19.178;2022-12-18T01:50:38;67.12;;;26.45;;
41101;SDS011;26845;50.190;19.178;2022-12-18T01:55:47;64.15;;;24.92;;
41101;SDS011;26845;50.190;19.178;2022-12-18T01:58:18;59.55;;;23.50;;
41101;SDS011;26845;50.190;19.178;2022-12-18T02:00:49;54.00;;;22.75;;
41101;SDS011;26845;50.190;19.178;2022-12-18T02:03:16;67.30;;;25.75;;
41101;SDS011;26845;50.190;19.178;2022-12-18T02:17:07;53.52;;;22.35;;
41101;SDS011;26845;50.190;19.178;2022-12-18T02:19:55;55.33;;;22.40;;
41101;SDS011;26845;50.190;19.178;2022-12-18T02:28:42;64.90;;;23.32;;
41101;SDS011;26845;50.190;19.178;2022-12-18T02:31:15;58.23;;;23.92;;
41101;SDS011;26845;50.190;19.178;2022-12-18T02:33:46;52.20;;;22.27;;
41101;SDS011;26845;50.190;19.178;2022-12-18T02:36:15;59.18;;;25.15;;
41101;SDS011;26845;50.190;19.178;2022-12-18T02:38:44;63.70;;;24.60;;
41101;SDS011;26845;50.190;19.178;2022-12-18T02:41:13;62.38;;;24.63;;
41101;SDS011;26845;50.190;19.178;2022-12-18T02:43:46;57.93;;;23.62;;
41101;SDS011;26845;50.190;19.178;2022-12-18T02:46:27;54.77;;;22.58;;
41101;SDS011;26845;50.190;19.178;2022-12-18T02:57:50;58.45;;;22.10;;
41101;SDS011;26845;50.190;19.178;2022-12-18T03:00:24;58.33;;;23.80;;
41101;SDS011;26845;50.190;19.178;2022-12-18T03:06:05;59.35;;;23.60;;
41101;SDS011;26845;50.190;19.178;2022-12-18T03:08:44;57.95;;;22.77;;
41101;SDS011;26845;50.190;19.178;2022-12-18T03:11:14;47.90;;;20.70;;
41101;SDS011;26845;50.190;19.178;2022-12-18T03:13:48;57.10;;;22.35;;
41101;SDS011;26845;50.190;19.178;2022-12-18T03:16:26;55.88;;;21.07;;
41101;SDS011;26845;50.190;19.178;2022-12-18T03:18:56;65.47;;;23.52;;
41101;SDS011;26845;50.190;19.178;2022-12-18T03:21:35;56.42;;;22.82;;
41101;SDS011;26845;50.190;19.178;2022-12-18T03:24:09;54.13;;;20.05;;
41101;SDS011;26845;50.190;19.178;2022-12-18T03:26:40;54.23;;;22.17;;
41101;SDS011;26845;50.190;19.178;2022-12-18T03:29:12;58.92;;;22.65;;
41101;SDS011;26845;50.190;19.178;2022-12-18T03:31:43;59.42;;;22.62;;
41101;SDS011;26845;50.190;19.178;2022-12-18T03:34:20;58.23;;;23.22;;
41101;SDS011;26845;50.190;19.178;2022-12-18T03:36:52;61.13;;;23.83;;
41101;SDS011;26845;50.190;19.178;2022-12-18T03:39:19;56.55;;;21.55;;
41101;SDS011;26845;50.190;19.178;2022-12-18T03:41:55;69.37;;;22.87;;
41101;SDS011;26845;50.190;19.178;2022-12-18T03:47:44;60.70;;;23.50;;
41101;SDS011;26845;50.190;19.178;2022-12-18T03:53:33;63.87;;;23.70;;
41101;SDS011;26845;50.190;19.178;2022-12-18T03:56:03;61.80;;;23.40;;
41101;SDS011;26845;50.190;19.178;2022-12-18T03:58:32;51.93;;;22.33;;
41101;SDS011;26845;50.190;19.178;2022-12-18T04:01:03;65.60;;;24.32;;
41101;SDS011;26845;50.190;19.178;2022-12-18T04:03:33;54.15;;;22.37;;
41101;SDS011;26845;50.190;19.178;2022-12-18T04:06:02;60.50;;;22.37;;
41101;SDS011;26845;50.190;19.178;2022-12-18T04:08:30;56.95;;;22.93;;
41101;SDS011;26845;50.190;19.178;2022-12-18T04:10:57;62.58;;;25.90;;
41101;SDS011;26845;50.190;19.178;2022-12-18T04:13:28;60.43;;;24.52;;
41101;SDS011;26845;50.190;19.178;2022-12-18T04:16:03;51.65;;;23.07;;
41101;SDS011;26845;50.190;19.178;2022-12-18T04:18:31;57.83;;;23.90;;
41101;SDS011;26845;50.190;19.178;2022-12-18T04:20:58;59.98;;;25.10;;
41101;SDS011;26845;50.190;19.178;2022-12-18T04:23:25;59.80;;;25.15;;
41101;SDS011;26845;50.190;19.178;2022-12-18T04:25:51;61.68;;;24.02;;
41101;SDS011;26845;50.190;19.178;2022-12-18T04:28:18;59.80;;;23.42;;
41101;SDS011;26845;50.190;19.178;2022-12-18T04:30:45;74.05;;;26.52;;
41101;SDS011;26845;50.190;19.178;2022-12-18T04:33:12;72.03;;;28.83;;
41101;SDS011;26845;50.190;19.178;2022-12-18T04:35:40;55.67;;;24.18;;
41101;SDS011;26845;50.190;19.178;2022-12-18T04:38:08;58.70;;;24.52;;
41101;SDS011;26845;50.190;19.178;2022-12-18T04:40:38;57.65;;;24.37;;
41101;SDS011;26845;50.190;19.178;2022-12-18T04:43:05;55.17;;;23.75;;
41101;SDS011;26845;50.190;19.178;2022-12-18T04:45:32;65.17;;;24.80;;
41101;SDS011;26845;50.190;19.178;2022-12-18T04:48:00;62.38;;;24.12;;
41101;SDS011;26845;50.190;19.178;2022-12-18T04:50:29;66.30;;;25.17;;
41101;SDS011;26845;50.190;19.178;2022-12-18T04:52:57;67.87;;;25.88;;
41101;SDS011;26845;50.190;19.178;2022-12-18T04:55:24;64.30;;;24.60;;
41101;SDS011;26845;50.190;19.178;2022-12-18T04:57:51;64.22;;;25.62;;
41101;SDS011;26845;50.190;19.178;2022-12-18T05:00:18;60.80;;;24.40;;
41101;SDS011;26845;50.190;19.178;2022-12-18T05:02:45;61.37;;;24.23;;
41101;SDS011;26845;50.190;19.178;2022-12-18T05:05:12;57.88;;;25.23;;
41101;SDS011;26845;50.190;19.178;2022-12-18T05:07:39;56.92;;;23.45;;
41101;SDS011;26845;50.190;19.178;2022-12-18T05:10:06;54.55;;;23.22;;
41101;SDS011;26845;50.190;19.178;2022-12-18T05:12:34;51.73;;;21.40;;
41101;SDS011;26845;50.190;19.178;2022-12-18T05:15:03;55.55;;;22.52;;
41101;SDS011;26845;50.190;19.178;2022-12-18T05:17:32;50.73;;;21.05;;
41101;SDS011;26845;50.190;19.178;2022-12-18T05:19:58;48.38;;;21.05;;
41101;SDS011;26845;50.190;19.178;2022-12-18T05:22:25;54.60;;;21.37;;
41101;SDS011;26845;50.190;19.178;2022-12-18T05:24:52;53.63;;;22.48;;
41101;SDS011;26845;50.190;19.178;2022-12-18T05:27:18;51.70;;;23.42;;
41101;SDS011;26845;50.190;19.178;2022-12-18T05:29:46;58.38;;;23.12;;
41101;SDS011;26845;50.190;19.178;2022-12-18T05:32:13;52.98;;;22.27;;
41101;SDS011;26845;50.190;19.178;2022-12-18T05:34:40;55.95;;;24.60;;
41101;SDS011;26845;50.190;19.178;2022-12-18T05:37:10;64.58;;;24.60;;
41101;SDS011;26845;50.190;19.178;2022-12-18T05:39:36;53.98;;;23.35;;
41101;SDS011;26845;50.190;19.178;2022-12-18T05:42:03;51.02;;;22.20;;
41101;SDS011;26845;50.190;19.178;2022-12-18T05:44:30;50.43;;;21.57;;
41101;SDS011;26845;50.190;19.178;2022-12-18T05:46:57;47.60;;;21.37;;
41101;SDS011;26845;50.190;19.178;2022-12-18T05:49:23;53.48;;;22.32;;
41101;SDS011;26845;50.190;19.178;2022-12-18T05:51:50;52.62;;;22.58;;
41101;SDS011;26845;50.190;19.178;2022-12-18T05:54:17;56.68;;;24.20;;
41101;SDS011;26845;50.190;19.178;2022-12-18T05:56:44;56.63;;;23.83;;
41101;SDS011;26845;50.190;19.178;2022-12-18T05:59:10;56.20;;;22.15;;
41101;SDS011;26845;50.190;19.178;2022-12-18T06:01:37;54.60;;;22.60;;
41101;SDS011;26845;50.190;19.178;2022-12-18T06:04:07;52.67;;;22.67;;
41101;SDS011;26845;50.190;19.178;2022-12-18T06:06:34;52.62;;;23.40;;
41101;SDS011;26845;50.190;19.178;2022-12-18T06:09:00;57.93;;;24.25;;
41101;SDS011;26845;50.190;19.178;2022-12-18T06:11:27;57.00;;;22.93;;
41101;SDS011;26845;50.190;19.178;2022-12-18T06:13:55;58.10;;;25.00;;
41101;SDS011;26845;50.190;19.178;2022-12-18T06:16:23;59.65;;;24.45;;
41101;SDS011;26845;50.190;19.178;2022-12-18T06:18:49;58.87;;;23.00;;
41101;SDS011;26845;50.190;19.178;2022-12-18T06:21:16;57.78;;;23.77;;
41101;SDS011;26845;50.190;19.178;2022-12-18T06:23:43;60.23;;;24.30;;
41101;SDS011;26845;50.190;19.178;2022-12-18T06:26:11;61.10;;;24.82;;
41101;SDS011;26845;50.190;19.178;2022-12-18T06:28:38;58.15;;;23.25;;
41101;SDS011;26845;50.190;19.178;2022-12-18T06:31:06;55.73;;;22.42;;
41101;SDS011;26845;50.190;19.178;2022-12-18T06:33:33;66.37;;;26.35;;
41101;SDS011;26845;50.190;19.178;2022-12-18T06:36:05;61.28;;;25.35;;
41101;SDS011;26845;50.190;19.178;2022-12-18T06:38:39;63.13;;;26.42;;
41101;SDS011;26845;50.190;19.178;2022-12-18T06:43:40;58.23;;;24.67;;
41101;SDS011;26845;50.190;19.178;2022-12-18T06:46:07;60.73;;;24.95;;
41101;SDS011;26845;50.190;19.178;2022-12-18T06:48:35;61.70;;;26.52;;
41101;SDS011;26845;50.190;19.178;2022-12-18T06:51:02;61.37;;;25.15;;
41101;SDS011;26845;50.190;19.178;2022-12-18T06:53:29;61.00;;;25.75;;
41101;SDS011;26845;50.190;19.178;2022-12-18T06:56:01;65.45;;;25.92;;
41101;SDS011;26845;50.190;19.178;2022-12-18T06:58:29;62.53;;;26.05;;
41101;SDS011;26845;50.190;19.178;2022-12-18T07:01:05;57.88;;;25.15;;
41101;SDS011;26845;50.190;19.178;2022-12-18T07:03:30;57.78;;;26.70;;
41101;SDS011;26845;50.190;19.178;2022-12-18T07:05:57;75.67;;;27.85;;
41101;SDS011;26845;50.190;19.178;2022-12-18T07:08:24;63.35;;;26.60;;
41101;SDS011;26845;50.190;19.178;2022-12-18T07:10:51;71.57;;;28.00;;
41101;SDS011;26845;50.190;19.178;2022-12-18T07:13:19;69.27;;;28.77;;
41101;SDS011;26845;50.190;19.178;2022-12-18T07:15:46;69.55;;;28.23;;
41101;SDS011;26845;50.190;19.178;2022-12-18T07:18:12;66.67;;;27.62;;
41101;SDS011;26845;50.190;19.178;2022-12-18T07:20:39;65.78;;;26.68;;
41101;SDS011;26845;50.190;19.178;2022-12-18T07:23:06;64.05;;;26.80;;
41101;SDS011;26845;50.190;19.178;2022-12-18T07:25:33;74.05;;;29.98;;
41101;SDS011;26845;50.190;19.178;2022-12-18T07:30:30;79.50;;;31.93;;
41101;SDS011;26845;50.190;19.178;2022-12-18T07:32:57;73.72;;;28.98;;
41101;SDS011;26845;50.190;19.178;2022-12-18T07:35:23;64.53;;;28.35;;
41101;SDS011;26845;50.190;19.178;2022-12-18T07:37:50;68.90;;;28.77;;
41101;SDS011;26845;50.190;19.178;2022-12-18T07:40:17;64.00;;;28.32;;
41101;SDS011;26845;50.190;19.178;2022-12-18T07:42:44;71.47;;;29.20;;
41101;SDS011;26845;50.190;19.178;2022-12-18T07:45:11;71.17;;;30.00;;
41101;SDS011;26845;50.190;19.178;2022-12-18T07:47:38;71.95;;;29.85;;
41101;SDS011;26845;50.190;19.178;2022-12-18T07:50:07;72.82;;;30.70;;
41101;SDS011;26845;50.190;19.178;2022-12-18T07:52:34;73.42;;;30.90;;
41101;SDS011;26845;50.190;19.178;2022-12-18T07:55:01;78.62;;;32.50;;
41101;SDS011;26845;50.190;19.178;2022-12-18T07:57:28;75.67;;;31.25;;
41101;SDS011;26845;50.190;19.178;2022-12-18T07:59:55;69.42;;;30.72;;
41101;SDS011;26845;50.190;19.178;2022-12-18T08:02:21;63.33;;;29.37;;
41101;SDS011;26845;50.190;19.178;2022-12-18T08:04:48;67.60;;;28.92;;
41101;SDS011;26845;50.190;19.178;2022-12-18T08:07:15;64.32;;;30.23;;
41101;SDS011;26845;50.190;19.178;2022-12-18T08:09:45;73.62;;;30.68;;
41101;SDS011;26845;50.190;19.178;2022-12-18T08:12:11;70.60;;;30.27;;
41101;SDS011;26845;50.190;19.178;2022-12-18T08:14:41;62.08;;;28.20;;
41101;SDS011;26845;50.190;19.178;2022-12-18T08:17:08;66.12;;;29.15;;
41101;SDS011;26845;50.190;19.178;2022-12-18T08:19:35;68.12;;;29.02;;
41101;SDS011;26845;50.190;19.178;2022-12-18T08:22:04;64.15;;;29.30;;
41101;SDS011;26845;50.190;19.178;2022-12-18T08:24:30;61.05;;;27.87;;
41101;SDS011;26845;50.190;19.178;2022-12-18T08:26:57;59.58;;;27.05;;
41101;SDS011;26845;50.190;19.178;2022-12-18T08:29:24;60.78;;;28.40;;
41101;SDS011;26845;50.190;19.178;2022-12-18T08:31:51;67.25;;;28.52;;
41101;SDS011;26845;50.190;19.178;2022-12-18T08:34:18;53.92;;;25.97;;
41101;SDS011;26845;50.190;19.178;2022-12-18T08:36:45;56.85;;;26.97;;
41101;SDS011;26845;50.190;19.178;2022-12-18T08:39:12;60.20;;;27.52;;
41101;SDS011;26845;50.190;19.178;2022-12-18T08:41:39;53.13;;;26.62;;
41101;SDS011;26845;50.190;19.178;2022-12-18T08:44:07;56.42;;;25.72;;
41101;SDS011;26845;50.190;19.178;2022-12-18T08:46:52;62.65;;;25.17;;
41101;SDS011;26845;50.190;19.178;2022-12-18T08:49:19;58.75;;;24.80;;
41101;SDS011;26845;50.190;19.178;2022-12-18T08:51:46;56.55;;;25.32;;
41101;SDS011;26845;50.190;19.178;2022-12-18T08:54:12;61.98;;;26.00;;
41101;SDS011;26845;50.190;19.178;2022-12-18T08:56:39;61.85;;;26.70;;
41101;SDS011;26845;50.190;19.178;2022-12-18T08:59:06;62.85;;;26.90;;
41101;SDS011;26845;50.190;19.178;2022-12-18T09:01:40;59.18;;;26.52;;
41101;SDS011;26845;50.190;19.178;2022-12-18T09:04:11;62.88;;;26.75;;
41101;SDS011;26845;50.190;19.178;2022-12-18T09:06:39;65.17;;;28.90;;
41101;SDS011;26845;50.190;19.178;2022-12-18T09:09:06;65.52;;;28.38;;
41101;SDS011;26845;50.190;19.178;2022-12-18T09:11:33;68.45;;;30.60;;
41101;SDS011;26845;50.190;19.178;2022-12-18T09:14:00;68.87;;;30.00;;
41101;SDS011;26845;50.190;19.178;2022-12-18T09:16:28;58.68;;;26.20;;
41101;SDS011;26845;50.190;19.178;2022-12-18T09:18:55;56.13;;;24.37;;
41101;SDS011;26845;50.190;19.178;2022-12-18T09:21:28;57.48;;;25.82;;
41101;SDS011;26845;50.190;19.178;2022-12-18T09:23:58;54.15;;;23.52;;
41101;SDS011;26845;50.190;19.178;2022-12-18T09:26:25;60.38;;;27.27;;
41101;SDS011;26845;50.190;19.178;2022-12-18T09:28:53;65.85;;;26.45;;
41101;SDS011;26845;50.190;19.178;2022-12-18T09:31:21;65.60;;;26.33;;
41101;SDS011;26845;50.190;19.178;2022-12-18T09:33:50;60.05;;;25.95;;
41101;SDS011;26845;50.190;19.178;2022-12-18T09:36:17;59.75;;;23.50;;
41101;SDS011;26845;50.190;19.178;2022-12-18T09:38:45;62.80;;;25.62;;
41101;SDS011;26845;50.190;19.178;2022-12-18T09:47:01;57.78;;;23.60;;
41101;SDS011;26845;50.190;19.178;2022-12-18T09:49:56;49.18;;;21.85;;
41101;SDS011;26845;50.190;19.178;2022-12-18T09:57:55;55.30;;;21.50;;
41101;SDS011;26845;50.190;19.178;2022-12-18T10:00:29;54.75;;;22.58;;
41101;SDS011;26845;50.190;19.178;2022-12-18T10:02:58;52.83;;;22.13;;
41101;SDS011;26845;50.190;19.178;2022-12-18T10:08:40;53.30;;;21.10;;
41101;SDS011;26845;50.190;19.178;2022-12-18T10:11:38;46.95;;;21.27;;
41101;SDS011;26845;50.190;19.178;2022-12-18T10:17:18;56.92;;;23.57;;
41101;SDS011;26845;50.190;19.178;2022-12-18T10:28:18;57.40;;;24.43;;
41101;SDS011;26845;50.190;19.178;2022-12-18T10:30:46;48.25;;;22.65;;
41101;SDS011;26845;50.190;19.178;2022-12-18T10:33:14;50.00;;;22.48;;
41101;SDS011;26845;50.190;19.178;2022-12-18T10:35:45;51.30;;;22.37;;
41101;SDS011;26845;50.190;19.178;2022-12-18T10:40:58;46.68;;;22.48;;
41101;SDS011;26845;50.190;19.178;2022-12-18T10:43:35;51.23;;;22.25;;
41101;SDS011;26845;50.190;19.178;2022-12-18T10:51:26;46.23;;;22.45;;
41101;SDS011;26845;50.190;19.178;2022-12-18T10:54:00;46.42;;;22.25;;
41101;SDS011;26845;50.190;19.178;2022-12-18T10:56:31;49.15;;;23.65;;
41101;SDS011;26845;50.190;19.178;2022-12-18T10:59:02;47.83;;;21.97;;
41101;SDS011;26845;50.190;19.178;2022-12-18T11:04:23;44.65;;;22.07;;
41101;SDS011;26845;50.190;19.178;2022-12-18T11:06:55;54.85;;;24.05;;
41101;SDS011;26845;50.190;19.178;2022-12-18T11:09:27;49.30;;;24.05;;
41101;SDS011;26845;50.190;19.178;2022-12-18T11:12:02;58.58;;;26.45;;
41101;SDS011;26845;50.190;19.178;2022-12-18T11:14:43;57.60;;;28.30;;
41101;SDS011;26845;50.190;19.178;2022-12-18T11:20:01;58.28;;;27.37;;
41101;SDS011;26845;50.190;19.178;2022-12-18T11:22:35;61.58;;;27.42;;
41101;SDS011;26845;50.190;19.178;2022-12-18T11:25:05;64.58;;;27.85;;
41101;SDS011;26845;50.190;19.178;2022-12-18T11:27:52;59.10;;;27.77;;
41101;SDS011;26845;50.190;19.178;2022-12-18T11:30:24;54.83;;;26.45;;
41101;SDS011;26845;50.190;19.178;2022-12-18T11:32:59;60.35;;;27.87;;
41101;SDS011;26845;50.190;19.178;2022-12-18T11:44:28;64.27;;;28.55;;
41101;SDS011;26845;50.190;19.178;2022-12-18T11:50:14;58.23;;;26.93;;
41101;SDS011;26845;50.190;19.178;2022-12-18T11:52:44;63.10;;;29.55;;
41101;SDS011;26845;50.190;19.178;2022-12-18T11:55:15;53.30;;;23.02;;
41101;SDS011;26845;50.190;19.178;2022-12-18T12:00:51;50.83;;;24.72;;
41101;SDS011;26845;50.190;19.178;2022-12-18T12:10:03;50.12;;;23.35;;
41101;SDS011;26845;50.190;19.178;2022-12-18T12:24:21;46.28;;;21.90;;
41101;SDS011;26845;50.190;19.178;2022-12-18T12:27:04;47.65;;;22.02;;
41101;SDS011;26845;50.190;19.178;2022-12-18T12:38:22;50.03;;;22.98;;
41101;SDS011;26845;50.190;19.178;2022-12-18T12:41:05;49.80;;;23.15;;
41101;SDS011;26845;50.190;19.178;2022-12-18T12:43:42;45.92;;;21.95;;
41101;SDS011;26845;50.190;19.178;2022-12-18T12:46:16;49.75;;;23.75;;
41101;SDS011;26845;50.190;19.178;2022-12-18T12:48:46;49.33;;;23.30;;
41101;SDS011;26845;50.190;19.178;2022-12-18T12:51:28;48.75;;;22.32;;
41101;SDS011;26845;50.190;19.178;2022-12-18T12:53:58;45.63;;;22.05;;
41101;SDS011;26845;50.190;19.178;2022-12-18T12:56:40;46.90;;;22.07;;
41101;SDS011;26845;50.190;19.178;2022-12-18T13:05:44;47.88;;;22.50;;
41101;SDS011;26845;50.190;19.178;2022-12-18T13:08:28;41.45;;;20.37;;
41101;SDS011;26845;50.190;19.178;2022-12-18T13:10:58;46.10;;;21.15;;
41101;SDS011;26845;50.190;19.178;2022-12-18T13:13:54;41.65;;;21.37;;
41101;SDS011;26845;50.190;19.178;2022-12-18T13:16:23;50.83;;;22.17;;
41101;SDS011;26845;50.190;19.178;2022-12-18T13:18:52;44.75;;;21.93;;
41101;SDS011;26845;50.190;19.178;2022-12-18T13:21:25;43.15;;;20.82;;
41101;SDS011;26845;50.190;19.178;2022-12-18T13:23:55;46.30;;;21.52;;
41101;SDS011;26845;50.190;19.178;2022-12-18T13:28:56;50.08;;;24.70;;
41101;SDS011;26845;50.190;19.178;2022-12-18T13:34:25;43.02;;;20.80;;
41101;SDS011;26845;50.190;19.178;2022-12-18T13:37:44;41.60;;;20.88;;
41101;SDS011;26845;50.190;19.178;2022-12-18T13:40:01;41.42;;;19.75;;
41101;SDS011;26845;50.190;19.178;2022-12-18T13:42:34;40.43;;;20.92;;
41101;SDS011;26845;50.190;19.178;2022-12-18T13:45:35;41.05;;;19.60;;
41101;SDS011;26845;50.190;19.178;2022-12-18T13:48:20;43.30;;;19.65;;
41101;SDS011;26845;50.190;19.178;2022-12-18T13:50:57;39.13;;;18.50;;
41101;SDS011;26845;50.190;19.178;2022-12-18T13:53:32;39.98;;;18.67;;
41101;SDS011;26845;50.190;19.178;2022-12-18T13:56:16;43.33;;;20.48;;
41101;SDS011;26845;50.190;19.178;2022-12-18T13:58:43;37.90;;;19.62;;
41101;SDS011;26845;50.190;19.178;2022-12-18T14:01:21;37.67;;;18.77;;
41101;SDS011;26845;50.190;19.178;2022-12-18T14:03:49;41.35;;;18.42;;
41101;SDS011;26845;50.190;19.178;2022-12-18T14:06:36;40.17;;;18.48;;
41101;SDS011;26845;50.190;19.178;2022-12-18T14:09:04;41.60;;;19.02;;
41101;SDS011;26845;50.190;19.178;2022-12-18T14:11:31;44.95;;;21.02;;
41101;SDS011;26845;50.190;19.178;2022-12-18T14:13:58;43.05;;;19.82;;
41101;SDS011;26845;50.190;19.178;2022-12-18T14:16:25;46.25;;;21.10;;
41101;SDS011;26845;50.190;19.178;2022-12-18T14:18:55;45.60;;;19.73;;
41101;SDS011;26845;50.190;19.178;2022-12-18T14:21:30;40.35;;;18.17;;
41101;SDS011;26845;50.190;19.178;2022-12-18T14:24:19;43.63;;;18.67;;
41101;SDS011;26845;50.190;19.178;2022-12-18T14:26:44;42.17;;;18.73;;
41101;SDS011;26845;50.190;19.178;2022-12-18T14:32:09;39.05;;;18.25;;
41101;SDS011;26845;50.190;19.178;2022-12-18T14:34:48;55.00;;;24.72;;
41101;SDS011;26845;50.190;19.178;2022-12-18T14:37:21;53.23;;;23.05;;
41101;SDS011;26845;50.190;19.178;2022-12-18T14:39:59;53.23;;;23.10;;
41101;SDS011;26845;50.190;19.178;2022-12-18T14:42:37;51.28;;;22.50;;
41101;SDS011;26845;50.190;19.178;2022-12-18T14:48:14;58.25;;;23.18;;
41101;SDS011;26845;50.190;19.178;2022-12-18T14:50:43;45.10;;;19.90;;
41101;SDS011;26845;50.190;19.178;2022-12-18T14:56:43;54.10;;;22.00;;
41101;SDS011;26845;50.190;19.178;2022-12-18T15:04:46;61.40;;;25.12;;
41101;SDS011;26845;50.190;19.178;2022-12-18T15:07:15;58.63;;;25.80;;
41101;SDS011;26845;50.190;19.178;2022-12-18T15:10:03;64.92;;;28.30;;
41101;SDS011;26845;50.190;19.178;2022-12-18T15:12:42;64.17;;;27.95;;
41101;SDS011;26845;50.190;19.178;2022-12-18T15:15:43;62.70;;;27.52;;
41101;SDS011;26845;50.190;19.178;2022-12-18T15:18:04;64.30;;;26.82;;
41101;SDS011;26845;50.190;19.178;2022-12-18T15:20:41;64.17;;;27.13;;
41101;SDS011;26845;50.190;19.178;2022-12-18T15:26:03;69.95;;;28.30;;
41101;SDS011;26845;50.190;19.178;2022-12-18T15:28:36;75.95;;;30.50;;
41101;SDS011;26845;50.190;19.178;2022-12-18T15:36:42;82.20;;;32.67;;
41101;SDS011;26845;50.190;19.178;2022-12-18T15:39:12;77.82;;;30.77;;
41101;SDS011;26845;50.190;19.178;2022-12-18T15:41:40;64.70;;;28.73;;
41101;SDS011;26845;50.190;19.178;2022-12-18T15:44:27;74.92;;;31.80;;
41101;SDS011;26845;50.190;19.178;2022-12-18T15:46:51;66.42;;;28.30;;
41101;SDS011;26845;50.190;19.178;2022-12-18T15:49:18;62.25;;;26.10;;
41101;SDS011;26845;50.190;19.178;2022-12-18T15:51:45;63.85;;;26.27;;
41101;SDS011;26845;50.190;19.178;2022-12-18T15:54:18;58.85;;;23.22;;
41101;SDS011;26845;50.190;19.178;2022-12-18T15:56:47;57.93;;;23.42;;
41101;SDS011;26845;50.190;19.178;2022-12-18T15:59:32;61.33;;;23.98;;
41101;SDS011;26845;50.190;19.178;2022-12-18T16:01:59;57.03;;;25.97;;
41101;SDS011;26845;50.190;19.178;2022-12-18T16:04:25;64.82;;;27.02;;
41101;SDS011;26845;50.190;19.178;2022-12-18T16:06:52;68.20;;;26.62;;
41101;SDS011;26845;50.190;19.178;2022-12-18T16:09:19;49.23;;;20.25;;
41101;SDS011;26845;50.190;19.178;2022-12-18T16:11:46;54.33;;;22.98;;
41101;SDS011;26845;50.190;19.178;2022-12-18T16:14:28;50.58;;;22.02;;
41101;SDS011;26845;50.190;19.178;2022-12-18T16:16:54;50.58;;;21.12;;
41101;SDS011;26845;50.190;19.178;2022-12-18T16:19:24;43.83;;;18.35;;
41101;SDS011;26845;50.190;19.178;2022-12-18T16:21:52;42.00;;;17.37;;
41101;SDS011;26845;50.190;19.178;2022-12-18T16:24:24;48.75;;;17.42;;
41101;SDS011;26845;50.190;19.178;2022-12-18T16:26:55;38.90;;;16.37;;
41101;SDS011;26845;50.190;19.178;2022-12-18T16:29:25;38.38;;;16.42;;
41101;SDS011;26845;50.190;19.178;2022-12-18T16:31:54;43.08;;;17.12;;
41101;SDS011;26845;50.190;19.178;2022-12-18T16:34:25;43.73;;;16.40;;
41101;SDS011;26845;50.190;19.178;2022-12-18T16:36:56;41.40;;;16.02;;
41101;SDS011;26845;50.190;19.178;2022-12-18T16:39:25;41.05;;;16.73;;
41101;SDS011;26845;50.190;19.178;2022-12-18T16:41:53;45.75;;;16.55;;
41101;SDS011;26845;50.190;19.178;2022-12-18T16:44:20;37.35;;;15.68;;
41101;SDS011;26845;50.190;19.178;2022-12-18T16:46:48;41.58;;;16.37;;
41101;SDS011;26845;50.190;19.178;2022-12-18T16:49:15;41.40;;;15.95;;
41101;SDS011;26845;50.190;19.178;2022-12-18T16:51:47;50.98;;;19.50;;
41101;SDS011;26845;50.190;19.178;2022-12-18T16:56:41;48.75;;;17.00;;
41101;SDS011;26845;50.190;19.178;2022-12-18T16:59:09;46.15;;;18.57;;
41101;SDS011;26845;50.190;19.178;2022-12-18T17:01:38;51.95;;;21.07;;
41101;SDS011;26845;50.190;19.178;2022-12-18T17:04:06;52.25;;;21.45;;
41101;SDS011;26845;50.190;19.178;2022-12-18T17:06:35;47.00;;;19.80;;
41101;SDS011;26845;50.190;19.178;2022-12-18T17:09:06;76.40;;;30.50;;
41101;SDS011;26845;50.190;19.178;2022-12-18T17:11:39;73.05;;;27.50;;
41101;SDS011;26845;50.190;19.178;2022-12-18T17:14:09;94.07;;;34.92;;